Time;durP1;ratioP1;P1;durP2;ratioP2;P2;SDS_P1;SDS_P2;PMS_P1;PMS_P2;Temp;Humidity;BMP_temperature;BMP_pressure;BME280_temperature;BME280_humidity;BME280_pressure;Samples;Min_cycle;Max_cycle;Signal;HPM_P1;HPM_P2
2022/08/24 00:02:05;;;;;;;5.15;4.70;;;20.30;92.50;;;;;;5012543;28;20445;-82
2022/08/24 00:04:32;;;;;;;5.43;5.00;;;20.10;92.40;;;;;;5013444;28;20262;-82
2022/08/24 00:06:57;;;;;;;5.20;4.70;;;20.40;92.80;;;;;;5007535;28;20179;-82
2022/08/24 00:09:23;;;;;;;5.40;5.00;;;20.40;92.90;;;;;;5007882;28;20206;-83
2022/08/24 00:11:49;;;;;;;5.33;4.93;;;20.00;92.80;;;;;;5013573;28;20429;-82
2022/08/24 00:14:15;;;;;;;5.20;4.70;;;20.30;93.10;;;;;;5012202;28;20761;-83
2022/08/24 00:16:41;;;;;;;4.57;4.27;;;19.90;93.10;;;;;;5017446;28;20171;-83
2022/08/24 00:19:06;;;;;;;5.07;4.70;;;20.30;93.30;;;;;;5012730;28;20461;-83
2022/08/24 00:21:32;;;;;;;5.10;4.70;;;20.10;93.40;;;;;;5011519;28;20799;-83
2022/08/24 00:23:58;;;;;;;5.33;4.93;;;19.80;93.50;;;;;;5011034;28;20233;-82
2022/08/24 00:26:24;;;;;;;4.90;4.60;;;19.80;93.70;;;;;;5014443;28;20205;-83
2022/08/24 00:28:50;;;;;;;5.35;4.95;;;19.80;94.00;;;;;;5011249;28;20194;-83
2022/08/24 00:31:16;;;;;;;5.53;4.97;;;20.00;94.60;;;;;;5011786;28;20214;-81
2022/08/24 00:33:42;;;;;;;5.53;5.13;;;20.00;94.60;;;;;;5013443;28;20542;-83
2022/08/24 00:36:08;;;;;;;5.10;4.80;;;20.00;94.30;;;;;;5007233;28;20175;-84
2022/08/24 00:38:37;;;;;;;5.20;4.80;;;19.80;94.40;;;;;;5010585;28;20194;-84
2022/08/24 00:41:04;;;;;;;5.05;4.65;;;19.90;94.50;;;;;;5004242;28;20536;-82
2022/08/24 00:43:30;;;;;;;6.22;4.55;;;19.40;94.30;;;;;;5011823;28;20206;-82
2022/08/24 00:46:21;;;;;;;5.03;4.65;;;19.40;94.60;;;;;;5011134;28;21136;-83
2022/08/24 00:48:50;;;;;;;5.00;4.60;;;19.30;95.10;;;;;;5003957;28;20179;-82
2022/08/24 00:51:22;;;;;;;5.93;5.15;;;19.30;95.10;;;;;;5011596;28;20242;-83
2022/08/24 00:53:56;;;;;;;5.35;4.88;;;19.50;95.10;;;;;;5007248;28;20186;-83
2022/08/24 00:56:33;;;;;;;5.07;4.68;;;19.30;94.90;;;;;;5012135;28;20174;-83
2022/08/24 00:59:17;;;;;;;5.30;4.90;;;19.30;94.90;;;;;;5008192;28;20610;-83
2022/08/24 01:01:43;;;;;;;5.30;4.90;;;19.30;95.00;;;;;;5015226;28;20338;-83
2022/08/24 01:04:17;;;;;;;5.50;5.07;;;19.30;95.00;;;;;;5012276;28;20726;-83
2022/08/24 01:06:42;;;;;;;5.30;4.90;;;19.30;95.00;;;;;;5008093;28;20203;-83
2022/08/24 01:09:08;;;;;;;5.27;4.87;;;19.70;95.70;;;;;;5005338;28;20643;-82
2022/08/24 01:11:34;;;;;;;5.60;5.10;;;19.50;95.30;;;;;;5011120;28;20641;-82
2022/08/24 01:14:02;;;;;;;4.90;4.60;;;19.60;95.60;;;;;;5028028;28;20270;-82
2022/08/24 01:19:26;;;;;;;5.07;4.68;;;19.00;95.40;;;;;;4998784;28;20671;-82
2022/08/24 01:22:12;;;;;;;5.70;5.20;;;19.40;96.00;;;;;;5009526;28;20178;-83
2022/08/24 01:24:38;;;;;;;5.43;5.03;;;19.00;96.00;;;;;;5007414;28;20687;-82
2022/08/24 01:27:07;;;;;;;5.47;5.00;;;18.50;95.90;;;;;;5011664;28;20222;-82
2022/08/24 01:29:33;;;;;;;5.63;5.15;;;18.90;96.20;;;;;;5009527;28;20487;-83
2022/08/24 01:31:59;;;;;;;5.75;5.28;;;18.50;96.10;;;;;;5010838;28;20270;-82
2022/08/24 01:34:25;;;;;;;5.30;4.90;;;19.20;96.60;;;;;;5011627;28;20314;-82
2022/08/24 01:36:54;;;;;;;5.10;4.70;;;18.70;96.60;;;;;;5009358;28;20689;-83
2022/08/24 01:39:30;;;;;;;5.85;5.30;;;19.10;97.00;;;;;;5002253;28;20187;-83
2022/08/24 01:41:56;;;;;;;6.05;5.53;;;18.70;96.80;;;;;;5009107;28;20184;-82
2022/08/24 01:44:24;;;;;;;5.82;4.70;;;18.90;97.10;;;;;;5010501;28;20174;-82
2022/08/24 01:46:54;;;;;;;5.57;5.15;;;18.50;97.30;;;;;;5007765;28;20187;-83
2022/08/24 01:49:22;;;;;;;5.28;4.85;;;18.80;98.10;;;;;;5009457;28;20179;-83
2022/08/24 01:51:47;;;;;;;5.47;4.97;;;20.00;98.30;;;;;;5011570;28;20187;-83
2022/08/24 01:54:14;;;;;;;5.03;4.63;;;18.80;97.50;;;;;;5008486;28;20675;-83
2022/08/24 01:56:39;;;;;;;5.72;5.30;;;18.80;97.50;;;;;;5008972;28;20179;-83
2022/08/24 01:59:06;;;;;;;5.83;5.00;;;18.80;97.60;;;;;;5005855;28;20195;-83
2022/08/24 02:01:37;;;;;;;5.60;5.20;;;18.70;97.60;;;;;;5012611;28;20187;-83
2022/08/24 02:04:05;;;;;;;5.80;5.22;;;18.80;97.70;;;;;;5009199;28;20202;-84
2022/08/24 02:06:31;;;;;;;6.00;5.40;;;18.60;97.90;;;;;;5009282;28;20193;-84
2022/08/24 02:08:57;;;;;;;5.97;5.57;;;18.30;97.90;;;;;;5004394;28;20276;-84
2022/08/24 02:11:23;;;;;;;5.60;5.10;;;18.80;98.30;;;;;;5010081;28;20238;-83
2022/08/24 02:13:48;;;;;;;6.00;5.50;;;18.50;98.40;;;;;;5010042;28;20175;-84
2022/08/24 02:16:14;;;;;;;5.43;5.00;;;18.40;98.50;;;;;;5009545;28;20179;-84
2022/08/24 02:18:41;;;;;;;6.20;5.70;;;18.40;98.70;;;;;;5006630;28;20215;-84
2022/08/24 02:21:08;;;;;;;5.40;5.00;;;18.30;98.90;;;;;;5008595;28;20199;-84
2022/08/24 02:23:35;;;;;;;5.78;5.38;;;18.40;99.00;;;;;;5008475;28;20190;-83
2022/08/24 02:26:02;;;;;;;6.20;5.60;;;18.40;98.90;;;;;;5006076;28;20211;-83
2022/08/24 02:28:28;;;;;;;6.18;5.57;;;18.30;98.90;;;;;;5010981;28;20198;-84
2022/08/24 02:30:54;;;;;;;5.93;5.53;;;18.20;99.00;;;;;;5010735;28;20262;-83
2022/08/24 02:33:19;;;;;;;5.70;5.20;;;17.80;98.90;;;;;;5011464;28;20175;-83
2022/08/24 02:35:45;;;;;;;6.10;5.60;;;18.30;99.10;;;;;;5010428;28;20442;-83
2022/08/24 02:38:11;;;;;;;5.78;5.38;;;18.30;99.10;;;;;;5007980;28;20552;-83
2022/08/24 02:40:37;;;;;;;5.70;5.10;;;18.20;99.30;;;;;;5002735;28;20199;-82
2022/08/24 02:43:03;;;;;;;6.40;5.33;;;18.30;99.50;;;;;;5009204;28;20175;-83
2022/08/24 02:45:28;;;;;;;5.40;5.00;;;18.30;99.60;;;;;;5003443;28;20460;-84
2022/08/24 02:47:54;;;;;;;5.97;5.47;;;18.00;99.90;;;;;;5009987;28;20202;-84
2022/08/24 02:50:19;;;;;;;5.60;5.20;;;18.00;99.90;;;;;;5000547;28;20218;-83
2022/08/24 02:52:45;;;;;;;6.10;5.50;;;18.10;99.90;;;;;;5005985;28;20188;-83
2022/08/24 02:55:15;;;;;;;6.03;5.53;;;18.10;99.80;;;;;;5009103;28;20571;-83
2022/08/24 02:57:40;;;;;;;6.53;6.03;;;18.10;99.80;;;;;;5006632;28;21134;-82
2022/08/24 03:00:10;;;;;;;7.33;5.87;;;18.00;99.80;;;;;;5003490;28;20203;-83
2022/08/24 03:02:35;;;;;;;6.40;5.80;;;17.80;99.90;;;;;;5009115;28;20183;-83
2022/08/24 03:05:02;;;;;;;6.20;5.70;;;18.30;99.90;;;;;;5005839;28;20182;-83
2022/08/24 03:07:27;;;;;;;5.82;5.43;;;18.10;99.90;;;;;;5006824;28;20191;-83
2022/08/24 03:09:53;;;;;;;6.30;5.80;;;18.20;99.90;;;;;;5019508;28;20216;-82
2022/08/24 03:12:18;;;;;;;5.70;5.40;;;18.10;99.90;;;;;;5010495;28;20646;-82
2022/08/24 03:14:44;;;;;;;6.63;6.13;;;18.10;99.90;;;;;;5007083;28;20182;-82
2022/08/24 03:17:10;;;;;;;5.70;5.30;;;18.00;99.90;;;;;;5007956;28;20190;-82
2022/08/24 03:19:35;;;;;;;9.40;5.70;;;17.80;99.90;;;;;;5003233;28;20198;-83
2022/08/24 03:22:01;;;;;;;5.70;5.20;;;17.90;99.90;;;;;;5003905;28;20175;-83
2022/08/24 03:24:27;;;;;;;5.80;5.33;;;17.50;99.90;;;;;;5012333;28;20175;-83
2022/08/24 03:26:52;;;;;;;6.17;5.60;;;17.80;99.90;;;;;;5016297;28;20716;-83
2022/08/24 03:29:18;;;;;;;6.10;5.60;;;17.90;99.90;;;;;;5008566;28;20195;-83
2022/08/24 03:31:44;;;;;;;5.93;5.53;;;17.80;99.90;;;;;;5011572;28;20215;-83
2022/08/24 03:34:12;;;;;;;5.82;5.43;;;17.50;99.90;;;;;;5011482;28;20213;-84
2022/08/24 03:36:39;;;;;;;6.25;5.70;;;17.90;99.90;;;;;;5013638;28;20178;-83
2022/08/24 03:39:05;;;;;;;6.13;5.63;;;17.80;99.90;;;;;;5007000;28;20183;-83
2022/08/24 03:41:31;;;;;;;5.80;5.40;;;17.70;99.90;;;;;;5010464;28;20768;-83
2022/08/24 03:43:56;;;;;;;6.93;6.37;;;17.80;99.90;;;;;;5013839;28;20194;-83
2022/08/24 03:46:27;;;;;;;6.30;5.80;;;18.10;99.90;;;;;;5008069;28;20507;-83
2022/08/24 03:48:55;;;;;;;6.47;6.00;;;17.70;99.90;;;;;;5010184;28;20265;-84
2022/08/24 03:51:27;;;;;;;6.50;6.10;;;17.70;99.90;;;;;;5011880;28;20218;-84
2022/08/24 03:53:54;;;;;;;6.15;5.65;;;17.70;99.90;;;;;;5008110;28;20325;-82
2022/08/24 03:56:20;;;;;;;7.20;6.60;;;17.60;99.90;;;;;;5012738;28;20190;-84
2022/08/24 03:58:46;;;;;;;7.50;6.67;;;17.20;99.90;;;;;;5014110;28;20206;-84
2022/08/24 04:01:13;;;;;;;7.18;6.50;;;17.40;99.90;;;;;;5012045;28;20460;-84
2022/08/24 04:03:42;;;;;;;6.90;6.40;;;17.70;99.90;;;;;;5013351;28;20557;-84
2022/08/24 04:06:09;;;;;;;7.30;6.70;;;17.30;99.90;;;;;;5012462;28;20244;-84
2022/08/24 04:08:35;;;;;;;7.55;6.35;;;17.70;99.90;;;;;;5009403;28;20183;-84
2022/08/24 04:11:01;;;;;;;6.60;6.10;;;17.50;99.90;;;;;;5009624;28;20589;-84
2022/08/24 04:13:30;;;;;;;7.43;6.67;;;17.40;99.90;;;;;;5012188;28;20449;-83
2022/08/24 04:16:16;;;;;;;7.40;6.80;;;17.10;99.90;;;;;;5011604;28;20442;-83
2022/08/24 04:18:42;;;;;;;7.90;7.22;;;17.40;99.90;;;;;;5009927;28;20676;-84
2022/08/24 04:21:22;;;;;;;6.60;6.10;;;17.60;99.90;;;;;;5012523;28;20207;-84
2022/08/24 04:23:49;;;;;;;7.32;6.72;;;17.00;99.90;;;;;;5006778;28;20187;-84
2022/08/24 04:26:15;;;;;;;7.22;6.63;;;17.30;99.90;;;;;;5008887;28;20233;-84
2022/08/24 04:28:41;;;;;;;7.32;6.80;;;17.60;99.90;;;;;;5007084;28;20215;-84
2022/08/24 04:31:07;;;;;;;6.50;6.00;;;17.60;99.90;;;;;;5010082;28;20276;-84
2022/08/24 04:33:33;;;;;;;7.43;6.82;;;17.60;99.90;;;;;;5009844;28;20194;-84
2022/08/24 04:35:58;;;;;;;6.43;5.93;;;17.70;99.90;;;;;;5011487;28;20190;-84
2022/08/24 04:38:25;;;;;;;7.27;6.77;;;17.60;99.90;;;;;;5006285;28;20504;-84
2022/08/24 04:40:51;;;;;;;7.30;6.70;;;17.80;99.90;;;;;;5012214;28;20246;-84
2022/08/24 04:43:17;;;;;;;9.00;7.07;;;17.70;99.90;;;;;;5011901;28;20206;-84
2022/08/24 04:45:47;;;;;;;9.43;6.37;;;17.70;99.90;;;;;;5021377;28;20484;-86
2022/08/24 04:48:14;;;;;;;6.78;6.32;;;18.00;99.90;;;;;;5010885;28;20179;-83
2022/08/24 04:50:42;;;;;;;8.30;6.95;;;17.50;99.90;;;;;;5006410;28;20243;-82
2022/08/24 04:53:08;;;;;;;7.30;6.78;;;18.00;99.90;;;;;;5005951;28;20174;-83
2022/08/24 04:55:44;;;;;;;7.25;6.53;;;17.80;99.90;;;;;;5006964;28;20183;-84
2022/08/24 04:58:12;;;;;;;7.07;6.35;;;17.60;99.90;;;;;;5008833;28;20194;-83
2022/08/24 05:00:37;;;;;;;7.53;6.82;;;17.70;99.90;;;;;;5009830;28;20206;-83
2022/08/24 05:03:03;;;;;;;6.70;6.10;;;18.10;99.90;;;;;;5011331;28;20210;-83
2022/08/24 05:05:28;;;;;;;7.47;6.97;;;19.10;99.90;;;;;;5011181;28;20210;-83
2022/08/24 05:07:54;;;;;;;7.30;6.73;;;17.90;99.90;;;;;;5009306;28;20210;-83
2022/08/24 05:10:21;;;;;;;6.60;6.10;;;18.30;99.90;;;;;;5007500;28;20293;-83
2022/08/24 05:12:46;;;;;;;6.72;6.22;;;17.90;99.90;;;;;;5010781;28;20285;-83
2022/08/24 05:15:12;;;;;;;8.10;7.43;;;18.20;99.90;;;;;;5010659;28;20703;-83
2022/08/24 05:17:39;;;;;;;7.37;6.77;;;18.10;99.90;;;;;;5008706;28;20552;-83
2022/08/24 05:20:08;;;;;;;8.50;7.70;;;18.10;99.90;;;;;;5008499;28;20691;-83
2022/08/24 05:22:34;;;;;;;8.93;8.02;;;18.10;99.90;;;;;;5007766;28;20202;-83
2022/08/24 05:24:59;;;;;;;7.65;7.05;;;18.60;99.90;;;;;;5003816;28;20554;-83
2022/08/24 05:27:25;;;;;;;8.70;7.80;;;18.60;99.90;;;;;;5017625;28;20650;-84
2022/08/24 05:29:54;;;;;;;7.27;6.67;;;18.80;99.90;;;;;;5009441;28;20206;-87
2022/08/24 05:32:20;;;;;;;7.45;6.85;;;18.70;99.90;;;;;;5013007;28;20178;-87
2022/08/24 05:34:45;;;;;;;7.18;6.65;;;18.60;99.90;;;;;;5013314;28;20317;-85
2022/08/24 05:37:11;;;;;;;8.00;7.00;;;18.80;99.90;;;;;;5010774;28;20246;-84
2022/08/24 05:39:37;;;;;;;7.93;7.13;;;18.80;99.90;;;;;;5002737;28;20234;-85
2022/08/24 05:42:03;;;;;;;7.10;6.40;;;19.00;99.90;;;;;;5011583;28;20187;-85
2022/08/24 05:44:30;;;;;;;7.00;6.50;;;18.50;99.90;;;;;;5011139;28;20767;-84
2022/08/24 05:46:57;;;;;;;8.15;7.40;;;18.90;99.90;;;;;;5012370;28;20977;-85
2022/08/24 05:49:24;;;;;;;9.63;7.03;;;18.60;99.30;;;;;;5015497;28;20269;-88
2022/08/24 05:51:52;;;;;;;8.25;7.55;;;19.10;99.90;;;;;;5015918;28;20281;-87
2022/08/24 05:54:19;;;;;;;7.55;6.85;;;19.20;99.60;;;;;;5014706;28;20659;-88
2022/08/24 05:56:44;;;;;;;8.38;6.95;;;19.20;99.30;;;;;;5013875;28;20210;-86
2022/08/24 05:59:11;;;;;;;6.63;6.13;;;19.00;99.10;;;;;;5021120;28;20187;-87
2022/08/24 06:01:37;;;;;;;7.18;6.47;;;19.30;98.90;;;;;;5012580;28;20982;-85
2022/08/24 06:04:03;;;;;;;7.40;6.70;;;20.50;99.30;;;;;;5010164;28;20183;-81
2022/08/24 06:06:30;;;;;;;7.20;6.38;;;19.90;98.20;;;;;;5008265;28;20511;-85
2022/08/24 06:08:58;;;;;;;10.30;6.70;;;19.50;97.60;;;;;;5008077;28;20242;-82
2022/08/24 06:11:36;;;;;;;6.68;6.15;;;20.10;97.50;;;;;;5023137;28;20207;-88
2022/08/24 06:14:08;;;;;;;7.75;6.13;;;19.90;97.00;;;;;;5012165;28;20186;-88
2022/08/24 06:16:35;;;;;;;7.05;6.40;;;20.50;96.90;;;;;;5011388;28;20341;-85
2022/08/24 06:19:02;;;;;;;7.70;7.00;;;20.20;96.10;;;;;;4996075;28;20191;-86
2022/08/24 06:21:27;;;;;;;6.22;5.63;;;21.50;96.70;;;;;;5011978;28;20213;-89
2022/08/24 06:23:53;;;;;;;6.57;6.07;;;20.60;96.00;;;;;;5011153;28;20187;-88
2022/08/24 06:29:06;;;;;;;5.90;5.40;;;21.20;95.60;;;;;;5012278;28;21435;-85
2022/08/24 06:31:36;;;;;;;7.10;5.88;;;20.90;95.10;;;;;;5016487;28;20198;-83
2022/08/24 06:34:02;;;;;;;5.63;5.20;;;21.10;94.40;;;;;;5015975;28;20195;-83
2022/08/24 06:36:27;;;;;;;5.50;5.20;;;21.20;94.20;;;;;;5010216;28;20191;-83
2022/08/24 06:38:53;;;;;;;6.27;5.70;;;21.80;94.50;;;;;;5006194;28;20274;-83
2022/08/24 06:41:19;;;;;;;5.50;5.10;;;21.50;93.40;;;;;;5008637;28;20218;-84
2022/08/24 06:43:44;;;;;;;6.47;5.97;;;22.00;93.50;;;;;;5008779;28;20179;-84
2022/08/24 06:46:11;;;;;;;6.80;6.30;;;21.80;93.10;;;;;;5011175;28;20467;-84
2022/08/24 06:48:36;;;;;;;8.50;5.93;;;22.00;92.50;;;;;;5008348;28;20179;-83
2022/08/24 06:51:09;;;;;;;5.90;5.50;;;22.10;91.90;;;;;;5007289;28;20476;-82
2022/08/24 06:53:34;;;;;;;5.70;5.20;;;22.10;91.60;;;;;;5000137;28;20532;-81
2022/08/24 06:56:00;;;;;;;6.97;5.77;;;22.20;91.50;;;;;;5010631;28;20526;-82
2022/08/24 06:58:27;;;;;;;5.87;5.33;;;22.80;91.50;;;;;;5008413;28;20731;-81
2022/08/24 07:00:54;;;;;;;7.20;6.10;;;23.10;91.60;;;;;;5008291;28;20678;-82
2022/08/24 07:03:21;;;;;;;6.23;5.60;;;22.80;91.10;;;;;;5009148;28;20433;-82
2022/08/24 07:05:52;;;;;;;11.47;6.50;;;23.20;91.20;;;;;;5008746;28;20436;-81
2022/08/24 07:08:18;;;;;;;7.23;6.43;;;23.40;90.80;;;;;;5005884;28;20446;-81
2022/08/24 07:10:44;;;;;;;7.70;6.00;;;22.80;90.20;;;;;;5006489;28;20527;-82
2022/08/24 07:13:11;;;;;;;6.00;5.40;;;23.80;87.50;;;;;;5011340;28;20435;-82
2022/08/24 07:15:37;;;;;;;4.90;4.40;;;26.90;84.30;;;;;;5010053;28;20440;-82
2022/08/24 07:18:08;;;;;;;5.50;5.10;;;28.40;74.50;;;;;;5008173;28;20518;-82
2022/08/24 07:20:35;;;;;;;8.77;5.10;;;30.00;64.50;;;;;;5007239;28;20973;-81
2022/08/24 07:23:01;;;;;;;9.90;4.60;;;31.60;57.80;;;;;;5003566;28;20517;-82
2022/08/24 07:25:30;;;;;;;6.90;5.10;;;33.20;54.00;;;;;;5006921;28;20438;-81
2022/08/24 07:27:55;;;;;;;6.27;5.77;;;34.40;51.60;;;;;;5008927;28;21039;-82
2022/08/24 07:30:21;;;;;;;6.47;5.60;;;35.20;48.20;;;;;;5007579;28;20556;-82
2022/08/24 07:32:46;;;;;;;5.97;5.40;;;36.00;47.20;;;;;;5008124;28;20273;-84
2022/08/24 07:35:12;;;;;;;5.53;5.10;;;36.90;45.00;;;;;;5009524;28;20194;-84
2022/08/24 07:37:38;;;;;;;8.70;4.77;;;36.70;43.70;;;;;;5004025;28;20176;-85
2022/08/24 07:40:04;;;;;;;6.53;5.50;;;37.20;43.20;;;;;;5003739;28;20457;-84
2022/08/24 07:42:30;;;;;;;6.10;5.33;;;37.20;42.10;;;;;;5008270;28;20244;-84
2022/08/24 07:47:36;;;;;;;6.40;5.90;;;37.60;40.90;;;;;;5006059;28;20218;-64
2022/08/24 07:50:01;;;;;;;6.43;5.63;;;37.80;40.30;;;;;;4999540;28;20531;-62
2022/08/24 07:52:27;;;;;;;5.90;5.40;;;38.50;40.10;;;;;;5006802;28;20484;-63
2022/08/24 07:54:52;;;;;;;6.47;5.90;;;39.90;38.30;;;;;;5006168;28;20194;-61
2022/08/24 07:57:18;;;;;;;6.23;5.60;;;39.40;38.10;;;;;;5008304;28;20198;-62
2022/08/24 07:59:46;;;;;;;12.50;11.50;;;40.30;37.40;;;;;;5002174;28;20281;-64
2022/08/24 08:02:13;;;;;;;7.13;6.63;;;41.60;35.90;;;;;;5009571;28;20191;-64
2022/08/24 08:04:39;;;;;;;6.27;5.50;;;42.40;34.20;;;;;;5009567;28;20541;-61
2022/08/24 08:07:06;;;;;;;4.80;4.50;;;42.40;33.50;;;;;;5005101;28;20551;-62
2022/08/24 08:09:32;;;;;;;5.40;4.80;;;42.30;33.20;;;;;;4998856;28;20461;-65
2022/08/24 08:11:58;;;;;;;5.90;5.27;;;42.90;31.70;;;;;;5009682;28;20434;-65
2022/08/24 08:14:24;;;;;;;5.90;5.40;;;42.20;30.10;;;;;;5012738;28;20460;-65
2022/08/24 08:16:49;;;;;;;6.37;5.40;;;42.30;31.30;;;;;;5008652;28;20213;-64
2022/08/24 08:19:15;;;;;;;5.23;4.43;;;42.20;30.70;;;;;;5007392;28;20207;-63
2022/08/24 08:24:29;;;;;;;5.70;5.20;;;41.90;30.80;;;;;;5006343;28;20452;-64
2022/08/24 08:26:56;;;;;;;3.50;3.23;;;43.10;29.20;;;;;;5009783;28;20958;-63
2022/08/24 08:29:23;;;;;;;3.83;3.53;;;42.40;28.80;;;;;;5008777;28;20721;-63
2022/08/24 08:31:50;;;;;;;4.10;3.80;;;43.20;28.40;;;;;;5010356;28;20471;-66
2022/08/24 08:34:17;;;;;;;3.87;3.53;;;41.80;28.80;;;;;;5006889;28;20805;-65
2022/08/24 08:36:43;;;;;;;4.60;4.20;;;42.40;29.10;;;;;;5010413;28;20438;-65
2022/08/24 08:39:11;;;;;;;4.13;3.73;;;42.90;28.90;;;;;;5001197;28;20493;-60
2022/08/24 08:41:57;;;;;;;3.17;2.90;;;43.40;28.10;;;;;;5007172;28;20473;-65
2022/08/24 08:44:32;;;;;;;2.70;2.50;;;42.30;26.90;;;;;;5009226;28;20440;-64
2022/08/24 08:47:36;;;;;;;3.33;3.13;;;40.50;28.20;;;;;;5016499;28;20449;-64
2022/08/24 08:50:17;;;;;;;3.00;2.80;;;41.40;28.00;;;;;;5006860;28;20846;-65
2022/08/24 08:53:14;;;;;;;3.30;3.10;;;41.80;27.30;;;;;;5007561;28;20437;-67
2022/08/24 08:56:13;;;;;;;3.50;3.20;;;41.00;28.80;;;;;;5006412;28;20434;-63
2022/08/24 08:59:07;;;;;;;3.50;3.20;;;41.30;28.30;;;;;;5010864;28;20437;-64
2022/08/24 09:01:59;;;;;;;3.40;3.20;;;40.60;29.50;;;;;;4997081;28;20439;-63
2022/08/24 09:04:49;;;;;;;3.47;3.20;;;41.10;28.80;;;;;;5006042;28;20448;-63
2022/08/24 09:07:15;;;;;;;3.50;3.07;;;41.00;28.10;;;;;;5007215;28;20812;-64
2022/08/24 09:10:01;;;;;;;3.47;3.20;;;39.20;28.30;;;;;;5005255;28;20454;-68
2022/08/24 09:12:50;;;;;;;3.57;3.37;;;40.20;29.00;;;;;;5012204;28;20517;-69
2022/08/24 09:15:52;;;;;;;3.70;3.37;;;40.60;28.40;;;;;;5010477;28;20438;-63
2022/08/24 09:18:36;;;;;;;3.47;3.17;;;40.50;28.80;;;;;;5011794;28;20445;-68
2022/08/24 09:21:08;;;;;;;4.53;4.07;;;39.20;29.30;;;;;;4993827;28;20446;-66
2022/08/24 09:23:48;;;;;;;2.90;2.80;;;38.10;30.30;;;;;;5001865;28;20446;-66
2022/08/24 09:26:31;;;;;;;5.33;3.70;;;37.50;31.30;;;;;;5006307;28;20433;-62
2022/08/24 09:29:13;;;;;;;4.30;3.90;;;36.60;32.80;;;;;;5008762;28;20826;-61
2022/08/24 09:31:39;;;;;;;6.43;3.30;;;35.40;34.30;;;;;;5009644;28;20524;-61
2022/08/24 09:34:31;;;;;;;4.17;3.80;;;34.50;34.80;;;;;;5006321;28;20453;-61
2022/08/24 09:37:08;;;;;;;4.83;2.70;;;32.80;38.20;;;;;;4992738;28;20270;-65
2022/08/24 09:39:58;;;;;;;8.50;7.80;;;32.20;38.50;;;;;;5003803;28;20458;-62
2022/08/24 09:42:55;;;;;;;3.50;2.90;;;31.70;39.60;;;;;;5009889;28;20800;-60
2022/08/24 09:45:43;;;;;;;3.33;3.03;;;31.10;40.00;;;;;;5002802;28;20450;-60
2022/08/24 09:48:25;;;;;;;3.37;3.07;;;30.80;41.40;;;;;;5009733;28;21169;-63
2022/08/24 09:51:32;;;;;;;3.57;3.00;;;30.60;41.80;;;;;;5011190;28;20467;-63
2022/08/24 09:54:16;;;;;;;3.30;2.63;;;30.50;41.70;;;;;;5002291;28;20540;-64
2022/08/24 09:56:51;;;;;;;3.70;3.40;;;30.20;41.40;;;;;;5008596;28;20440;-64
2022/08/24 10:00:13;;;;;;;2.50;2.30;;;30.30;41.80;;;;;;5008446;28;20971;-63
2022/08/24 10:03:12;;;;;;;2.60;2.40;;;30.90;41.20;;;;;;4990881;28;20446;-61
2022/08/24 10:05:59;;;;;;;2.60;2.40;;;31.00;40.70;;;;;;5010769;28;20524;-61
2022/08/24 10:08:52;;;;;;;2.30;2.20;;;30.90;40.10;;;;;;4998907;28;20965;-60
2022/08/24 10:11:45;;;;;;;2.60;2.43;;;30.50;39.70;;;;;;5008547;28;20471;-61
2022/08/24 10:14:29;;;;;;;3.10;2.80;;;30.20;40.70;;;;;;5023420;28;20549;-65
2022/08/24 10:17:37;;;;;;;3.00;2.70;;;30.30;41.70;;;;;;5006514;28;21004;-65
2022/08/24 10:20:24;;;;;;;2.60;2.40;;;29.90;41.30;;;;;;5007793;28;20497;-64
2022/08/24 10:23:16;;;;;;;2.90;2.60;;;29.70;42.40;;;;;;5000063;28;20545;-64
2022/08/24 10:26:07;;;;;;;2.50;2.30;;;29.70;42.60;;;;;;5007423;28;20452;-65
2022/08/24 10:29:10;;;;;;;4.07;2.60;;;29.80;42.60;;;;;;5010159;28;20449;-64
2022/08/24 10:32:01;;;;;;;4.13;2.40;;;29.80;42.40;;;;;;5003765;28;20472;-64
2022/08/24 10:34:45;;;;;;;2.60;2.40;;;29.70;43.00;;;;;;5019908;28;20432;-65
2022/08/24 10:37:29;;;;;;;3.87;3.43;;;29.80;43.60;;;;;;5007154;28;20490;-65
2022/08/24 10:40:32;;;;;;;4.10;3.43;;;29.70;43.20;;;;;;4994549;28;20600;-65
2022/08/24 10:46:15;;;;;;;3.03;2.67;;;29.80;43.90;;;;;;5008831;28;20523;-64
2022/08/24 10:48:53;;;;;;;2.97;2.77;;;29.90;44.70;;;;;;5006117;28;20457;-64
2022/08/24 10:51:37;;;;;;;2.93;2.73;;;29.90;43.60;;;;;;5008731;28;20479;-64
2022/08/24 10:54:03;;;;;;;3.00;2.77;;;29.80;43.70;;;;;;5000602;28;20445;-64
2022/08/24 10:56:42;;;;;;;3.03;2.70;;;30.10;44.00;;;;;;4999655;28;20438;-64
2022/08/24 10:59:34;;;;;;;3.17;2.87;;;30.20;44.20;;;;;;4997420;28;20459;-64
2022/08/24 11:02:08;;;;;;;4.43;2.50;;;30.30;44.00;;;;;;5007338;28;20481;-64
2022/08/24 11:04:35;;;;;;;3.00;2.80;;;30.40;43.40;;;;;;5003623;28;20445;-64
2022/08/24 11:07:08;;;;;;;2.80;2.60;;;30.40;42.80;;;;;;5009498;28;20833;-64
2022/08/24 11:09:52;;;;;;;3.07;2.83;;;30.60;42.90;;;;;;5003331;28;20467;-66
2022/08/24 11:12:27;;;;;;;3.00;2.80;;;30.80;43.20;;;;;;5003080;28;20438;-64
2022/08/24 11:14:56;;;;;;;5.07;4.60;;;30.70;43.30;;;;;;5010036;28;20433;-64
2022/08/24 11:17:25;;;;;;;4.43;4.03;;;30.80;44.00;;;;;;5008222;28;20452;-64
2022/08/24 11:19:51;;;;;;;3.60;2.50;;;30.90;43.20;;;;;;5004246;28;20536;-64
2022/08/24 11:22:36;;;;;;;3.00;2.80;;;30.70;43.20;;;;;;5009189;28;20957;-64
2022/08/24 11:25:24;;;;;;;3.97;2.57;;;30.80;43.20;;;;;;5007363;28;20512;-64
2022/08/24 11:27:56;;;;;;;2.90;2.70;;;30.60;42.70;;;;;;5004625;28;20433;-64
2022/08/24 11:30:26;;;;;;;2.87;2.50;;;30.70;43.30;;;;;;4995987;28;20471;-64
2022/08/24 11:33:00;;;;;;;3.20;2.57;;;30.70;43.10;;;;;;5009871;28;20455;-64
2022/08/24 11:35:32;;;;;;;2.80;2.60;;;30.70;42.80;;;;;;5010023;28;20437;-64
2022/08/24 11:38:30;;;;;;;2.43;2.23;;;30.60;43.30;;;;;;5005057;28;20950;-65
2022/08/24 11:40:56;;;;;;;2.97;2.70;;;30.80;43.00;;;;;;5006833;28;20475;-61
2022/08/24 11:43:33;;;;;;;3.80;3.17;;;31.10;43.10;;;;;;5009485;28;20845;-60
2022/08/24 11:46:20;;;;;;;2.60;2.43;;;30.90;42.50;;;;;;5009495;28;20219;-61
2022/08/24 11:49:01;;;;;;;2.33;2.23;;;31.00;42.10;;;;;;5010471;28;20441;-64
2022/08/24 11:51:52;;;;;;;2.60;2.40;;;30.90;41.70;;;;;;5005257;28;20465;-60
2022/08/24 11:54:33;;;;;;;2.30;2.20;;;30.90;41.50;;;;;;5008002;28;20554;-62
2022/08/24 11:57:14;;;;;;;2.60;2.40;;;31.00;41.30;;;;;;5012915;28;20436;-61
2022/08/24 12:00:12;;;;;;;2.60;2.40;;;31.10;40.50;;;;;;5011304;28;20464;-60
2022/08/24 12:02:40;;;;;;;2.20;2.10;;;31.20;40.50;;;;;;5008080;28;20931;-62
2022/08/24 12:05:30;;;;;;;2.77;2.30;;;31.50;41.20;;;;;;5000892;28;20881;-61
2022/08/24 12:08:01;;;;;;;2.33;1.93;;;31.80;40.00;;;;;;5005204;28;20448;-61
2022/08/24 12:10:42;;;;;;;1.90;1.80;;;31.90;39.60;;;;;;5006973;28;20476;-60
2022/08/24 12:13:38;;;;;;;2.47;2.27;;;32.10;39.40;;;;;;5013402;28;20436;-60
2022/08/24 12:16:29;;;;;;;2.20;2.10;;;32.20;39.30;;;;;;5012169;28;20488;-60
2022/08/24 12:19:07;;;;;;;2.43;2.23;;;32.10;39.00;;;;;;4996321;28;20547;-60
2022/08/24 12:21:38;;;;;;;2.73;2.53;;;32.10;39.10;;;;;;5011122;28;20851;-60
2022/08/24 12:24:09;;;;;;;2.33;2.23;;;32.00;39.60;;;;;;5010543;28;20448;-60
2022/08/24 12:26:49;;;;;;;2.93;2.50;;;31.90;39.60;;;;;;5011082;28;20444;-59
2022/08/24 12:29:33;;;;;;;3.87;3.00;;;31.80;39.80;;;;;;5008014;28;20562;-59
2022/08/24 12:32:05;;;;;;;3.00;2.70;;;31.80;40.30;;;;;;5010237;28;20471;-58
2022/08/24 12:35:04;;;;;;;2.60;2.40;;;31.80;39.40;;;;;;5019438;28;20444;-58
2022/08/24 12:37:35;;;;;;;2.47;2.27;;;31.70;40.30;;;;;;5005930;28;20438;-58
2022/08/24 12:40:10;;;;;;;2.90;2.70;;;31.50;39.70;;;;;;4992008;28;20527;-58
2022/08/24 12:42:54;;;;;;;4.80;4.43;;;31.40;39.80;;;;;;5010405;28;20437;-58
2022/08/24 12:45:22;;;;;;;3.10;2.43;;;31.50;40.10;;;;;;5008983;28;20467;-58
2022/08/24 12:48:01;;;;;;;2.60;2.07;;;31.70;39.20;;;;;;5006826;28;20552;-59
2022/08/24 12:50:41;;;;;;;2.37;2.10;;;31.50;38.60;;;;;;5006840;28;20466;-59
2022/08/24 12:53:37;;;;;;;2.90;2.20;;;31.00;39.00;;;;;;5007098;28;20513;-58
2022/08/24 12:56:36;;;;;;;2.53;1.97;;;31.10;39.50;;;;;;5008116;28;20419;-73
2022/08/24 12:59:05;;;;;;;4.67;2.10;;;31.10;39.10;;;;;;5000385;28;20452;-73
2022/08/24 13:01:40;;;;;;;3.03;2.83;;;31.10;39.40;;;;;;5007925;28;20433;-72
2022/08/24 13:04:31;;;;;;;2.40;2.20;;;31.10;39.40;;;;;;5009119;28;20472;-72
2022/08/24 13:07:18;;;;;;;2.70;1.97;;;31.20;39.20;;;;;;4996646;28;20443;-72
2022/08/24 13:09:46;;;;;;;2.00;1.90;;;31.10;39.30;;;;;;5009723;28;20452;-72
2022/08/24 13:12:42;;;;;;;2.30;2.20;;;30.90;39.00;;;;;;5013080;28;20577;-72
2022/08/24 13:15:23;;;;;;;3.00;2.50;;;31.00;39.10;;;;;;4983923;28;20450;-73
2022/08/24 13:17:57;;;;;;;2.20;2.00;;;31.00;39.30;;;;;;5006382;28;20445;-71
2022/08/24 13:20:49;;;;;;;2.93;2.10;;;31.20;39.00;;;;;;5007549;28;20870;-72
2022/08/24 13:23:20;;;;;;;2.33;2.23;;;31.30;38.80;;;;;;5008624;28;20510;-72
2022/08/24 13:25:46;;;;;;;2.30;2.10;;;31.40;38.60;;;;;;5011024;28;20452;-63
2022/08/24 13:28:24;;;;;;;4.73;1.90;;;31.30;38.30;;;;;;5010487;28;20446;-63